| time (UTC) | temp F | wind direction | speed knots | gust knots | rain 1hr in | rain 24hr in | rain mn in | humidity % | barometer mb |
| 20260508030005 | 50 | 16 | 0.0 | 0.0 | 0.00 | 0.06 | 0.05 | 96 | 1002.0 |
| 20260508025004 | 50 | 2 | 0.0 | 0.0 | 0.00 | 0.06 | 0.05 | 96 | 1002.0 |
| 20260508024004 | 50 | 5 | 0.0 | 0.0 | 0.00 | 0.06 | 0.05 | 96 | 1002.0 |
| 20260508023004 | 51 | 161 | 0.0 | 1.7 | 0.00 | 0.06 | 0.05 | 96 | 1002.0 |
| 20260508022004 | 59 | 73 | 0.9 | 1.7 | 0.00 | 0.06 | 0.05 | 93 | 999.7 |
| 20260508021004 | 59 | 73 | 0.9 | 1.7 | 0.00 | 0.06 | 0.05 | 93 | 999.7 |
| 20260508020003 | 59 | 73 | 0.9 | 1.7 | 0.00 | 0.06 | 0.05 | 93 | 999.7 |
| 20260508014004 | 59 | 73 | 0.9 | 1.7 | 0.00 | 0.06 | 0.05 | 93 | 999.7 |
| 20260508013004 | 59 | 73 | 0.9 | 1.7 | 0.00 | 0.06 | 0.05 | 93 | 999.7 |
| 20260508012005 | 59 | 73 | 0.9 | 1.7 | 0.00 | 0.06 | 0.05 | 93 | 999.7 |
| 20260508011003 | 59 | 73 | 0.9 | 1.7 | 0.00 | 0.06 | 0.05 | 93 | 999.7 |
| 20260508010003 | 59 | 73 | 0.9 | 1.7 | 0.00 | 0.06 | 0.05 | 93 | 999.7 |
| 20260508004004 | 59 | 73 | 0.9 | 1.7 | 0.00 | 0.06 | 0.05 | 93 | 999.7 |
| 20260508003004 | 59 | 73 | 0.9 | 1.7 | 0.00 | 0.06 | 0.05 | 93 | 999.7 |
| 20260508002005 | 59 | 73 | 0.9 | 1.7 | 0.00 | 0.06 | 0.05 | 93 | 999.7 |
| 20260508001005 | 59 | 73 | 0.9 | 1.7 | 0.00 | 0.06 | 0.05 | 93 | 999.7 |
| 20260508000004 | 59 | 73 | 0.9 | 1.7 | 0.00 | 0.06 | 0.05 | 93 | 999.7 |
| 20260507235004 | 59 | 73 | 0.9 | 1.7 | 0.00 | 0.06 | 0.05 | 93 | 999.7 |
| 20260507234004 | 59 | 73 | 0.9 | 1.7 | 0.00 | 0.06 | 0.05 | 93 | 999.7 |
| 20260507233005 | 59 | 73 | 0.9 | 1.7 | 0.00 | 0.06 | 0.05 | 93 | 999.7 |
| 20260507232003 | 59 | 73 | 0.9 | 1.7 | 0.00 | 0.06 | 0.05 | 93 | 999.7 |
| 20260507231004 | 59 | 73 | 0.9 | 1.7 | 0.00 | 0.06 | 0.05 | 93 | 999.7 |
| 20260507230005 | 59 | 73 | 0.9 | 1.7 | 0.00 | 0.06 | 0.05 | 93 | 999.7 |
| 20260507225004 | 59 | 73 | 0.9 | 1.7 | 0.00 | 0.06 | 0.05 | 93 | 999.7 |
| 20260507224004 | 59 | 73 | 0.9 | 1.7 | 0.00 | 0.06 | 0.05 | 93 | 999.7 |
| 20260507223005 | 59 | 73 | 0.9 | 1.7 | 0.00 | 0.06 | 0.05 | 93 | 999.7 |
| 20260507221003 | 59 | 73 | 0.9 | 1.7 | 0.00 | 0.06 | 0.05 | 93 | 999.7 |
| 20260507220004 | 59 | 73 | 0.9 | 1.7 | 0.00 | 0.06 | 0.05 | 93 | 999.7 |
| 20260507215004 | 59 | 73 | 0.9 | 1.7 | 0.00 | 0.06 | 0.05 | 93 | 999.7 |
| 20260507213004 | 59 | 73 | 0.9 | 1.7 | 0.00 | 0.06 | 0.05 | 93 | 999.7 |
| 20260507212004 | 59 | 73 | 0.9 | 1.7 | 0.00 | 0.06 | 0.05 | 93 | 999.7 |
| 20260507211004 | 59 | 73 | 0.9 | 1.7 | 0.00 | 0.06 | 0.05 | 93 | 999.7 |
| 20260507210005 | 59 | 73 | 0.9 | 1.7 | 0.00 | 0.06 | 0.05 | 93 | 999.7 |
| 20260507205004 | 59 | 73 | 0.9 | 1.7 | 0.00 | 0.06 | 0.05 | 93 | 999.7 |
| 20260507204005 | 59 | 73 | 0.9 | 1.7 | 0.00 | 0.06 | 0.05 | 93 | 999.7 |
| 20260507203004 | 59 | 73 | 0.9 | 1.7 | 0.00 | 0.06 | 0.05 | 93 | 999.7 |
| 20260507202005 | 59 | 73 | 0.9 | 1.7 | 0.00 | 0.06 | 0.05 | 93 | 999.7 |
| 20260507201004 | 59 | 73 | 0.9 | 1.7 | 0.00 | 0.06 | 0.05 | 93 | 999.7 |
| 20260507200004 | 59 | 73 | 0.9 | 1.7 | 0.00 | 0.06 | 0.05 | 93 | 999.7 |
| 20260507195004 | 59 | 73 | 0.9 | 1.7 | 0.00 | 0.06 | 0.05 | 93 | 999.7 |
| 20260507194004 | 59 | 73 | 0.9 | 1.7 | 0.00 | 0.06 | 0.05 | 93 | 999.7 |
| 20260507193004 | 59 | 73 | 0.9 | 1.7 | 0.00 | 0.06 | 0.05 | 93 | 999.7 |
| 20260507192004 | 59 | 73 | 0.9 | 1.7 | 0.00 | 0.06 | 0.05 | 93 | 999.7 |
| 20260507191004 | 59 | 73 | 0.9 | 1.7 | 0.00 | 0.06 | 0.05 | 93 | 999.7 |
| 20260507184004 | 59 | 73 | 0.9 | 1.7 | 0.00 | 0.06 | 0.05 | 93 | 999.7 |
| 20260507182004 | 59 | 73 | 0.9 | 1.7 | 0.00 | 0.06 | 0.05 | 93 | 999.7 |
| 20260507181004 | 59 | 73 | 0.9 | 1.7 | 0.00 | 0.06 | 0.05 | 93 | 999.7 |
| 20260507174004 | 59 | 73 | 0.9 | 1.7 | 0.00 | 0.06 | 0.05 | 93 | 999.7 |
| 20260507172005 | 59 | 73 | 0.9 | 1.7 | 0.00 | 0.07 | 0.05 | 93 | 999.7 |
| 20260507171005 | 59 | 73 | 0.9 | 1.7 | 0.00 | 0.07 | 0.05 | 93 | 999.7 |
| 20260507170005 | 59 | 73 | 0.9 | 1.7 | 0.00 | 0.07 | 0.05 | 93 | 999.7 |
| 20260507165005 | 59 | 73 | 0.9 | 1.7 | 0.00 | 0.07 | 0.05 | 93 | 999.7 |
| 20260507164005 | 59 | 73 | 0.9 | 1.7 | 0.00 | 0.07 | 0.05 | 93 | 999.7 |
| 20260507163004 | 59 | 73 | 0.9 | 1.7 | 0.00 | 0.07 | 0.05 | 93 | 999.7 |
| 20260507161004 | 59 | 73 | 0.9 | 1.7 | 0.00 | 0.07 | 0.05 | 93 | 999.7 |
| 20260507160004 | 59 | 73 | 0.9 | 1.7 | 0.00 | 0.07 | 0.05 | 93 | 999.7 |
| 20260507155004 | 59 | 73 | 0.9 | 1.7 | 0.00 | 0.07 | 0.05 | 93 | 999.7 |
| 20260507154004 | 59 | 73 | 0.9 | 1.7 | 0.00 | 0.08 | 0.05 | 93 | 999.7 |
| 20260507152004 | 59 | 73 | 0.9 | 1.7 | 0.00 | 0.08 | 0.05 | 93 | 999.7 |
| 20260507145004 | 59 | 73 | 0.9 | 1.7 | 0.00 | 0.13 | 0.05 | 93 | 999.7 |
| 20260507144003 | 59 | 73 | 0.9 | 1.7 | 0.00 | 0.14 | 0.05 | 93 | 999.7 |
| 20260507143005 | 59 | 73 | 0.9 | 1.7 | 0.00 | 0.14 | 0.05 | 93 | 999.7 |
| 20260507142005 | 59 | 73 | 0.9 | 1.7 | 0.00 | 0.14 | 0.05 | 93 | 999.7 |
| 20260507140005 | 60 | 199 | 2.6 | 6.1 | 0.00 | 0.14 | 0.05 | 92 | 999.3 |
| 20260507135004 | 63 | 127 | 1.7 | 7.8 | 0.00 | 0.14 | 0.05 | 94 | 999.0 |
| 20260507134003 | 65 | 226 | 0.0 | 2.6 | 0.00 | 0.14 | 0.05 | 95 | 999.0 |
| 20260507133004 | 65 | 84 | 1.7 | 2.6 | 0.00 | 0.14 | 0.05 | 95 | 999.3 |
| 20260507131004 | 65 | 18 | 0.0 | 2.6 | 0.00 | 0.14 | 0.05 | 96 | 999.7 |
| 20260507130004 | 65 | 14 | 0.0 | 2.6 | 0.00 | 0.14 | 0.05 | 95 | 999.3 |
| 20260507125004 | 65 | 332 | 0.0 | 2.6 | 0.00 | 0.14 | 0.05 | 96 | 999.0 |
| 20260507124004 | 65 | 91 | 0.9 | 2.6 | 0.00 | 0.14 | 0.05 | 96 | 999.0 |
| 20260507123005 | 64 | 78 | 0.0 | 1.7 | 0.00 | 0.14 | 0.05 | 95 | 999.3 |
| 20260507122004 | 64 | 38 | 0.0 | 2.6 | 0.00 | 0.14 | 0.05 | 96 | 999.3 |
| 20260507120004 | 64 | 347 | 0.0 | 0.0 | 0.00 | 0.14 | 0.05 | 95 | 999.0 |
| 20260507115004 | 64 | 347 | 0.0 | 0.0 | 0.00 | 0.14 | 0.05 | 96 | 999.3 |
| 20260507114004 | 64 | 10 | 0.0 | 0.0 | 0.00 | 0.14 | 0.05 | 95 | 999.3 |
| 20260507113004 | 64 | 148 | 0.0 | 0.9 | 0.00 | 0.14 | 0.05 | 96 | 999.0 |
| 20260507105004 | 64 | 28 | 0.0 | 0.0 | 0.00 | 0.14 | 0.05 | 95 | 999.0 |
| 20260507104004 | 64 | 21 | 0.0 | 0.0 | 0.00 | 0.14 | 0.05 | 95 | 999.0 |
| 20260507103004 | 64 | 59 | 0.0 | 2.6 | 0.00 | 0.14 | 0.05 | 95 | 998.6 |
| 20260507102003 | 64 | 244 | 2.6 | 2.6 | 0.00 | 0.14 | 0.05 | 95 | 998.0 |
| 20260507101004 | 64 | 256 | 0.0 | 1.7 | 0.00 | 0.14 | 0.05 | 95 | 998.6 |
| 20260507100005 | 64 | 297 | 0.0 | 1.7 | 0.00 | 0.14 | 0.05 | 95 | 999.0 |
| 20260507095004 | 64 | 234 | 0.9 | 1.7 | 0.00 | 0.14 | 0.05 | 95 | 999.0 |
| 20260507094004 | 64 | 166 | 0.0 | 1.7 | 0.00 | 0.14 | 0.05 | 95 | 999.0 |
| 20260507093004 | 65 | 27 | 1.7 | 1.7 | 0.00 | 0.14 | 0.05 | 95 | 999.3 |
| 20260507092004 | 65 | 17 | 0.0 | 0.9 | 0.01 | 0.14 | 0.05 | 95 | 999.0 |
| 20260507091004 | 65 | 44 | 0.0 | 1.7 | 0.01 | 0.14 | 0.05 | 95 | 999.0 |
| 20260507090004 | 65 | 64 | 0.0 | 1.7 | 0.01 | 0.14 | 0.05 | 95 | 999.0 |
| 20260507085003 | 65 | 26 | 0.0 | 0.9 | 0.01 | 0.14 | 0.05 | 95 | 999.0 |
| 20260507084004 | 65 | 44 | 0.0 | 0.9 | 0.01 | 0.14 | 0.05 | 95 | 999.0 |
| 20260507083004 | 65 | 16 | 0.0 | 0.9 | 0.01 | 0.14 | 0.05 | 95 | 999.0 |
| 20260507082004 | 65 | 6 | 0.0 | 2.6 | 0.00 | 0.13 | 0.04 | 95 | 999.0 |
| 20260507081004 | 65 | 14 | 0.0 | 2.6 | 0.00 | 0.13 | 0.04 | 95 | 999.0 |
| 20260507075004 | 65 | 67 | 0.9 | 2.6 | 0.00 | 0.13 | 0.04 | 95 | 998.6 |
| 20260507074003 | 65 | 355 | 0.9 | 2.6 | 0.00 | 0.13 | 0.04 | 95 | 998.3 |
| 20260507073004 | 65 | 335 | 0.0 | 1.7 | 0.00 | 0.13 | 0.04 | 95 | 998.0 |
| 20260507072004 | 65 | 163 | 0.0 | 2.6 | 0.00 | 0.13 | 0.04 | 95 | 998.6 |
| 20260507071004 | 65 | 321 | 0.0 | 2.6 | 0.00 | 0.13 | 0.04 | 95 | 998.6 |
| 20260507070009 | 65 | 269 | 0.0 | 2.6 | 0.00 | 0.13 | 0.04 | 95 | 998.3 |
| 20260507065003 | 65 | 235 | 2.6 | 2.6 | 0.00 | 0.13 | 0.04 | 95 | 998.6 |
| 20260507064004 | 65 | 302 | 0.0 | 2.6 | 0.00 | 0.13 | 0.04 | 95 | 999.3 |
| 20260507063004 | 65 | 346 | 0.0 | 2.6 | 0.00 | 0.13 | 0.04 | 95 | 999.7 |
| 20260507062004 | 66 | 303 | 1.7 | 2.6 | 0.00 | 0.13 | 0.04 | 95 | 999.7 |
| 20260507061005 | 66 | 332 | 0.0 | 4.3 | 0.00 | 0.13 | 0.04 | 95 | 1000.0 |
| 20260507060004 | 66 | 336 | 1.7 | 5.2 | 0.00 | 0.13 | 0.04 | 95 | 1000.0 |
| 20260507055004 | 66 | 338 | 2.6 | 2.6 | 0.00 | 0.13 | 0.04 | 95 | 1000.0 |
| 20260507051004 | 65 | 37 | 1.7 | 1.7 | 0.03 | 0.13 | 0.04 | 95 | 1000.2 |
| 20260507044004 | 66 | 45 | 0.9 | 2.6 | 0.05 | 0.13 | 0.04 | 95 | 1000.3 |
| 20260507043004 | 66 | 25 | 0.9 | 2.6 | 0.05 | 0.13 | 0.04 | 94 | 999.6 |
| 20260507042004 | 66 | 196 | 0.9 | 2.6 | 0.04 | 0.12 | 0.03 | 94 | 1000.3 |
| 20260507041004 | 66 | 9 | 1.7 | 6.1 | 0.02 | 0.10 | 0.01 | 94 | 1001.0 |
| 20260507040004 | 67 | 11 | 2.6 | 6.1 | 0.01 | 0.09 | 0.00 | 93 | 1001.4 |
| 20260507035004 | 67 | 344 | 2.6 | 5.2 | 0.01 | 0.09 | 0.09 | 93 | 1001.4 |
| 20260507034004 | 67 | 319 | 2.6 | 4.3 | 0.00 | 0.08 | 0.08 | 93 | 1001.4 |
| 20260507033004 | 67 | 317 | 1.7 | 2.6 | 0.00 | 0.08 | 0.08 | 91 | 1001.0 |
| 20260507032004 | 67 | 357 | 0.0 | 1.7 | 0.00 | 0.08 | 0.08 | 90 | 1000.3 |